createdAt,value
2023-06-17T00:03:35.925Z,28.60
2023-06-17T00:08:38.921Z,32.47
2023-06-17T00:13:43.069Z,34.13
2023-06-17T00:18:45.831Z,32.80
2023-06-17T00:23:48.648Z,32.78
2023-06-17T00:28:52.796Z,30.00
2023-06-17T00:33:55.573Z,30.65
2023-06-17T00:38:58.459Z,32.33
2023-06-17T00:44:02.985Z,35.08
2023-06-17T00:49:06.828Z,30.50
2023-06-17T00:54:10.508Z,37.05
2023-06-17T00:59:15.349Z,37.65
2023-06-17T01:04:18.209Z,37.13
2023-06-17T01:09:26.062Z,35.53
2023-06-17T01:14:32.661Z,36.72
2023-06-17T01:19:36.662Z,38.17
2023-06-17T01:24:41.509Z,37.92
2023-06-17T01:29:48.193Z,36.65
2023-06-17T01:34:57.579Z,43.20
2023-06-17T01:40:07.610Z,31.45
2023-06-17T01:45:11.397Z,38.72
2023-06-17T01:50:19.829Z,42.00
2023-06-17T01:55:24.513Z,46.20
2023-06-17T02:00:27.894Z,36.65
2023-06-17T02:05:34.302Z,41.22
2023-06-17T02:10:38.492Z,35.38
2023-06-17T02:15:43.870Z,38.47
2023-06-17T02:20:48.787Z,37.40
2023-06-17T02:25:53.851Z,40.72
2023-06-17T02:30:56.734Z,35.92
2023-06-17T02:35:59.729Z,40.40
2023-06-17T02:41:03.876Z,39.22
2023-06-17T02:46:06.894Z,38.55
2023-06-17T02:51:10.458Z,37.67
2023-06-17T02:56:14.696Z,34.63
2023-06-17T03:01:18.129Z,35.65
2023-06-17T03:06:22.880Z,37.33
2023-06-17T03:11:29.911Z,31.92
2023-06-17T03:16:36.238Z,35.63
2023-06-17T03:21:42.088Z,32.67
2023-06-17T03:26:47.284Z,40.45
2023-06-17T03:31:51.284Z,35.22
2023-06-17T03:36:54.754Z,30.70
2023-06-17T03:41:59.508Z,35.25
2023-06-17T03:47:03.524Z,38.78
2023-06-17T03:52:08.794Z,38.55
2023-06-17T03:57:13.563Z,38.70
2023-06-17T04:02:16.629Z,34.40
2023-06-17T04:07:19.503Z,36.58
2023-06-17T04:12:23.733Z,40.75
2023-06-17T04:17:26.905Z,38.22
2023-06-17T04:22:29.736Z,40.00
2023-06-17T04:27:34.105Z,38.85
2023-06-17T04:32:40.229Z,39.08
2023-06-17T04:37:50.234Z,41.53
2023-06-17T04:42:54.888Z,39.77
2023-06-17T04:48:05.090Z,38.73
2023-06-17T04:53:08.827Z,38.25
2023-06-17T04:58:15.125Z,33.20
2023-06-17T05:03:31.707Z,36.58
2023-06-17T05:08:34.655Z,41.72
2023-06-17T05:13:40.552Z,44.00
2023-06-17T05:18:44.309Z,41.22
2023-06-17T05:23:47.289Z,44.22
2023-06-17T05:28:52.127Z,34.72
2023-06-17T05:33:55.023Z,37.25
2023-06-17T05:38:57.955Z,37.60
2023-06-17T05:44:02.422Z,35.35
2023-06-17T05:49:06.489Z,35.33
2023-06-17T05:54:09.447Z,33.70
2023-06-17T05:59:14.352Z,32.50
2023-06-17T06:04:19.078Z,31.10
2023-06-17T06:09:22.126Z,30.05
2023-06-17T06:14:26.520Z,32.97
2023-06-17T06:19:30.902Z,35.78
2023-06-17T06:24:33.743Z,33.28
2023-06-17T06:29:39.868Z,29.45
2023-06-17T06:34:42.889Z,35.55
2023-06-17T06:39:45.937Z,34.00
2023-06-17T06:44:50.972Z,29.90
2023-06-17T06:49:54.010Z,30.40
2023-06-17T06:54:56.973Z,28.73
2023-06-17T07:00:01.227Z,28.83
2023-06-17T07:05:05.199Z,30.00
2023-06-17T07:10:14.560Z,31.27
2023-06-17T07:15:19.025Z,30.05
2023-06-17T07:20:24.680Z,34.97
2023-06-17T07:25:27.995Z,28.33
2023-06-17T07:30:32.577Z,29.73
2023-06-17T07:35:35.634Z,24.30
2023-06-17T07:40:38.662Z,27.55
2023-06-17T07:45:43.031Z,28.77
2023-06-17T07:50:46.351Z,25.38
2023-06-17T07:55:49.685Z,24.52
2023-06-17T08:00:53.974Z,28.25
2023-06-17T08:05:58.253Z,30.05
2023-06-17T08:11:01.088Z,28.38
2023-06-17T08:16:05.598Z,27.42
2023-06-17T08:21:08.475Z,29.98
2023-06-17T08:26:12.746Z,27.83
2023-06-17T08:31:18.293Z,23.77
2023-06-17T08:36:21.082Z,21.83
2023-06-17T08:41:23.931Z,24.75
2023-06-17T08:46:29.008Z,23.17
2023-06-17T08:51:32.800Z,24.08
2023-06-17T08:56:37.025Z,22.00
2023-06-17T09:01:45.058Z,19.98
2023-06-17T09:06:48.447Z,18.60
2023-06-17T09:11:53.145Z,22.08
2023-06-17T09:16:57.672Z,18.52
2023-06-17T09:22:07.191Z,20.25
2023-06-17T09:27:21.496Z,23.60
2023-06-17T09:32:25.714Z,17.65
2023-06-17T09:37:28.579Z,19.95
2023-06-17T09:42:32.220Z,18.77
2023-06-17T09:47:38.775Z,19.38
2023-06-17T09:52:42.197Z,18.33
2023-06-17T09:57:46.089Z,22.42
2023-06-17T10:02:50.379Z,20.90
2023-06-17T10:07:55.070Z,16.20
2023-06-17T10:13:01.668Z,22.10
2023-06-17T10:18:09.141Z,18.45
2023-06-17T10:28:16.675Z,15.82
2023-06-17T10:33:28.529Z,18.25
2023-06-17T10:38:34.442Z,18.02
2023-06-17T10:43:38.404Z,14.95
2023-06-17T10:48:42.672Z,14.23
2023-06-17T10:53:50.053Z,16.90
2023-06-17T10:58:55.891Z,14.30
2023-06-17T11:04:08.610Z,14.48
2023-06-17T11:09:11.445Z,13.38
2023-06-17T11:14:14.534Z,14.38
2023-06-17T11:19:18.748Z,17.15
2023-06-17T11:24:21.774Z,11.85
2023-06-17T11:29:25.679Z,11.20
2023-06-17T11:34:33.231Z,13.65
2023-06-17T11:39:39.709Z,13.43
2023-06-17T11:44:42.983Z,12.80
2023-06-17T11:49:47.141Z,12.48
2023-06-17T11:54:50.712Z,12.93
2023-06-17T11:59:54.132Z,15.23
2023-06-17T12:05:02.122Z,15.25
2023-06-17T12:10:05.677Z,12.70
2023-06-17T12:20:19.895Z,14.43
2023-06-17T12:25:24.283Z,10.93
2023-06-17T12:30:27.497Z,13.95
2023-06-17T12:35:31.801Z,12.38
2023-06-17T12:40:34.724Z,11.43
2023-06-17T12:45:43.282Z,13.23
2023-06-17T12:50:47.913Z,12.13
2023-06-17T12:55:51.990Z,12.05
2023-06-17T13:00:55.286Z,10.32
2023-06-17T13:05:59.625Z,9.93
2023-06-17T13:11:02.588Z,12.07
2023-06-17T13:16:05.801Z,13.18
2023-06-17T13:21:10.543Z,12.40
2023-06-17T13:26:13.371Z,10.32
2023-06-17T13:31:16.239Z,11.88
2023-06-17T13:36:20.620Z,10.45
2023-06-17T13:41:23.497Z,10.85
2023-06-17T13:46:26.437Z,8.18
2023-06-17T13:51:30.779Z,11.90
2023-06-17T13:56:33.774Z,10.95
2023-06-17T14:01:36.673Z,10.43
2023-06-17T14:06:41.332Z,23.45
2023-06-17T14:11:44.281Z,20.50
2023-06-17T14:16:47.132Z,22.23
2023-06-17T14:22:00.825Z,24.17
2023-06-17T14:27:29.933Z,23.15
2023-06-17T14:32:33.081Z,19.92
2023-06-17T14:37:37.806Z,19.38
2023-06-17T14:42:41.119Z,18.77
2023-06-17T14:47:44.816Z,27.85
2023-06-17T14:52:50.852Z,19.95
2023-06-17T14:57:54.212Z,25.25
2023-06-17T15:03:00.978Z,21.10
2023-06-17T15:08:06.731Z,21.77
2023-06-17T15:13:09.865Z,18.00
2023-06-17T15:18:13.706Z,19.08
2023-06-17T15:23:17.996Z,19.38
2023-06-17T15:28:20.859Z,17.25
2023-06-17T15:33:24.033Z,15.75
2023-06-17T15:38:28.252Z,15.20
2023-06-17T15:43:31.051Z,16.98
2023-06-17T15:48:35.324Z,12.63
2023-06-17T15:53:39.515Z,15.98
2023-06-17T15:58:42.482Z,16.45
2023-06-17T16:03:46.149Z,15.90
2023-06-17T16:08:50.724Z,15.95
2023-06-17T16:13:53.576Z,19.98
2023-06-17T16:18:58.672Z,18.50
2023-06-17T16:24:03.378Z,23.92
2023-06-17T16:29:06.505Z,20.27
2023-06-17T16:34:09.343Z,15.55
2023-06-17T16:39:13.649Z,18.15
2023-06-17T16:44:16.961Z,17.80
2023-06-17T16:49:20.190Z,19.73
2023-06-17T16:54:24.555Z,15.43
2023-06-17T16:59:27.500Z,16.20
2023-06-17T17:04:30.371Z,20.60
2023-06-17T17:09:34.763Z,17.98
2023-06-17T17:14:37.583Z,8.90
2023-06-17T17:19:40.483Z,12.57
2023-06-17T17:24:45.463Z,11.20
2023-06-17T17:29:48.453Z,13.20
2023-06-17T17:34:51.256Z,16.73
2023-06-17T17:39:55.791Z,11.35
2023-06-17T17:44:58.686Z,10.73
2023-06-17T17:50:01.559Z,13.35
2023-06-17T17:55:06.395Z,12.77
2023-06-17T18:00:10.308Z,13.05
2023-06-17T18:05:15.676Z,14.90
2023-06-17T18:10:20.117Z,11.93
2023-06-17T18:15:23.248Z,13.90
2023-06-17T18:20:26.745Z,14.80
2023-06-17T18:25:30.918Z,13.35
2023-06-17T18:30:33.790Z,11.80
2023-06-17T18:35:36.578Z,12.05
2023-06-17T18:40:40.859Z,13.40
2023-06-17T18:45:43.673Z,12.45
2023-06-17T18:50:46.926Z,12.38
2023-06-17T18:55:51.315Z,11.25
2023-06-17T19:00:55.871Z,13.35
2023-06-17T19:05:58.743Z,12.57
2023-06-17T19:11:03.089Z,11.98
2023-06-17T19:16:06.125Z,13.52
2023-06-17T19:21:10.859Z,15.30
2023-06-17T19:26:15.414Z,13.20
2023-06-17T19:31:18.374Z,13.77
2023-06-17T19:36:21.204Z,14.35
2023-06-17T19:41:25.554Z,17.02
2023-06-17T19:46:29.004Z,18.50
2023-06-17T19:51:34.605Z,15.82
2023-06-17T19:56:38.909Z,14.65
2023-06-17T20:01:43.571Z,15.40
2023-06-17T20:06:46.475Z,18.17
2023-06-17T20:11:51.529Z,18.15
2023-06-17T20:16:54.680Z,17.13
2023-06-17T20:21:57.709Z,20.55
2023-06-17T20:27:02.189Z,22.65
2023-06-17T20:32:05.732Z,19.85
2023-06-17T20:37:08.637Z,20.75
2023-06-17T20:42:13.413Z,18.48
2023-06-17T20:47:19.652Z,20.05
2023-06-17T20:52:22.903Z,21.92
2023-06-17T20:57:27.045Z,22.23
2023-06-17T21:02:30.170Z,24.25
2023-06-17T21:07:33.116Z,23.63
2023-06-17T21:12:38.103Z,18.77
2023-06-17T21:17:43.783Z,19.70
2023-06-17T21:22:46.626Z,19.75
2023-06-17T21:27:50.773Z,18.55
2023-06-17T21:32:53.605Z,20.73
2023-06-17T21:37:56.576Z,20.35
2023-06-17T21:43:00.706Z,20.25
2023-06-17T21:48:03.525Z,20.02
2023-06-17T21:53:06.429Z,21.63
2023-06-17T21:58:10.707Z,19.25
2023-06-17T22:03:14.097Z,16.63
2023-06-17T22:08:20.214Z,16.52
2023-06-17T22:13:26.588Z,17.77
2023-06-17T22:18:29.401Z,17.23
2023-06-17T22:23:32.187Z,14.95
2023-06-17T22:28:36.690Z,17.20
2023-06-17T22:33:39.503Z,21.88
2023-06-17T22:38:42.298Z,20.23
2023-06-17T22:43:46.573Z,20.65
2023-06-17T22:48:49.379Z,18.50
2023-06-17T22:53:52.426Z,21.20
2023-06-17T22:58:56.636Z,19.73
2023-06-17T23:03:59.540Z,19.25
2023-06-17T23:09:02.306Z,22.10
2023-06-17T23:14:09.911Z,20.40
2023-06-17T23:19:12.682Z,25.38
2023-06-17T23:24:15.634Z,22.20
2023-06-17T23:29:19.899Z,23.98
2023-06-17T23:34:22.929Z,22.88
2023-06-17T23:39:25.720Z,23.02
2023-06-17T23:44:29.883Z,22.30
2023-06-17T23:49:35.534Z,19.95
2023-06-17T23:54:38.731Z,21.15
2023-06-17T23:59:43.178Z,22.08
